Time;durP1;ratioP1;P1;durP2;ratioP2;P2;SDS_P1;SDS_P2;PMS_P1;PMS_P2;Temp;Humidity;BMP_temperature;BMP_pressure;BME280_temperature;BME280_humidity;BME280_pressure;Samples;Min_cycle;Max_cycle;Signal;HPM_P1;HPM_P2
2023/12/22 00:02:13;;;;;;;16.60;3.47;;;;;;;5.37;78.52;98794.25;5055330;28;20206;-80
2023/12/22 00:04:39;;;;;;;12.20;2.67;;;;;;;5.47;78.61;98812.97;5055958;28;20221;-82
2023/12/22 00:07:07;;;;;;;13.53;3.03;;;;;;;5.40;77.97;98823.50;5055901;28;20236;-81
2023/12/22 00:09:33;;;;;;;18.60;3.73;;;;;;;5.57;77.27;98817.03;5056024;28;20201;-81
2023/12/22 00:11:59;;;;;;;14.13;2.93;;;;;;;5.42;77.01;98847.63;5056589;28;20209;-80
2023/12/22 00:14:26;;;;;;;6.40;2.20;;;;;;;5.28;78.00;98855.69;5056001;28;20230;-81
2023/12/22 00:16:52;;;;;;;8.07;2.40;;;;;;;5.22;78.64;98848.94;5060471;28;20264;-81
2023/12/22 00:19:19;;;;;;;8.43;2.33;;;;;;;5.30;78.00;98841.00;5060065;28;20284;-83
2023/12/22 00:21:45;;;;;;;6.20;2.07;;;;;;;5.25;79.47;98794.53;5060403;28;20209;-82
2023/12/22 00:24:13;;;;;;;8.40;2.30;;;;;;;5.27;79.07;98795.34;5059919;28;20280;-81
2023/12/22 00:26:39;;;;;;;5.47;1.77;;;;;;;5.09;80.34;98783.69;5059002;28;20203;-82
2023/12/22 00:29:05;;;;;;;5.57;2.13;;;;;;;4.92;81.35;98747.06;5058027;28;20214;-81
2023/12/22 00:31:32;;;;;;;13.20;2.00;;;;;;;5.11;80.45;98743.16;5056553;28;20201;-80
2023/12/22 00:33:58;;;;;;;8.00;2.50;;;;;;;4.88;80.43;98740.25;5056184;28;20287;-80
2023/12/22 00:36:24;;;;;;;15.57;2.70;;;;;;;4.96;80.17;98743.50;5056778;28;20205;-79
2023/12/22 00:38:51;;;;;;;10.30;2.87;;;;;;;5.03;79.78;98764.88;5055933;28;20716;-80
2023/12/22 00:41:19;;;;;;;7.03;1.93;;;;;;;5.20;79.76;98754.16;5057046;28;20206;-81
2023/12/22 00:43:45;;;;;;;9.33;2.67;;;;;;;5.26;78.84;98760.00;5057219;28;20711;-83
2023/12/22 00:46:11;;;;;;;15.77;3.20;;;;;;;5.21;79.54;98776.53;5057247;28;20214;-80
2023/12/22 00:48:38;;;;;;;7.77;3.23;;;;;;;5.17;78.16;98804.19;5056453;28;20210;-79
2023/12/22 00:51:06;;;;;;;7.90;2.47;;;;;;;5.16;78.60;98803.34;5057381;28;20206;-79
2023/12/22 00:53:32;;;;;;;13.30;2.70;;;;;;;5.12;79.39;98795.72;5058395;28;20222;-80
2023/12/22 00:56:00;;;;;;;14.77;2.93;;;;;;;5.42;78.38;98782.94;5064620;28;20231;-82
2023/12/22 00:58:28;;;;;;;13.77;2.83;;;;;;;5.30;77.33;98826.31;5058864;28;20233;-82
2023/12/22 01:00:54;;;;;;;10.47;3.00;;;;;;;5.25;77.02;98845.41;5058351;28;20240;-82
2023/12/22 01:03:20;;;;;;;10.93;4.00;;;;;;;5.30;77.12;98838.41;5057358;28;20809;-81
2023/12/22 01:05:47;;;;;;;14.97;3.23;;;;;;;5.21;78.21;98848.94;5058286;28;20207;-80
2023/12/22 01:08:13;;;;;;;15.50;2.50;;;;;;;5.25;77.95;98860.94;5057933;28;20209;-80
2023/12/22 01:10:40;;;;;;;13.47;2.90;;;;;;;5.18;78.51;98868.81;5057726;28;20211;-80
2023/12/22 01:13:06;;;;;;;11.90;2.30;;;;;;;5.32;77.87;98872.84;5058473;28;20201;-80
2023/12/22 01:15:34;;;;;;;12.67;3.40;;;;;;;5.34;77.27;98855.56;5057036;28;20206;-81
2023/12/22 01:18:00;;;;;;;7.73;2.53;;;;;;;5.29;78.08;98880.66;5057762;28;20211;-81
2023/12/22 01:20:26;;;;;;;9.67;3.10;;;;;;;5.21;78.19;98875.66;5057956;28;20225;-80
2023/12/22 01:22:53;;;;;;;13.70;2.90;;;;;;;5.37;77.71;98848.56;5058082;28;20259;-83
2023/12/22 01:25:19;;;;;;;7.13;2.53;;;;;;;5.35;78.50;98857.25;5057232;28;20206;-80
2023/12/22 01:27:46;;;;;;;17.20;3.67;;;;;;;5.53;77.67;98858.53;5058040;28;20742;-82
2023/12/22 01:30:12;;;;;;;13.57;2.70;;;;;;;5.52;77.19;98870.63;5058097;28;20229;-82
2023/12/22 01:32:40;;;;;;;14.80;3.40;;;;;;;5.52;77.70;98869.78;5058085;28;20213;-82
2023/12/22 01:35:09;;;;;;;8.90;2.97;;;;;;;5.32;78.03;98862.50;5058087;28;20644;-80
2023/12/22 01:37:36;;;;;;;11.83;2.60;;;;;;;5.35;77.07;98883.97;5050190;28;20256;-80
2023/12/22 01:40:02;;;;;;;11.03;2.47;;;;;;;5.48;78.05;98873.34;5057320;28;20225;-82
2023/12/22 01:42:29;;;;;;;8.53;3.20;;;;;;;5.38;77.25;98899.41;5057816;28;20205;-82
2023/12/22 01:44:55;;;;;;;8.43;2.63;;;;;;;5.49;77.56;98875.91;5057383;28;20299;-82
2023/12/22 01:47:22;;;;;;;11.07;2.30;;;;;;;5.45;77.72;98858.75;5056860;28;20211;-81
2023/12/22 01:49:50;;;;;;;15.80;2.53;;;;;;;5.47;79.69;98850.94;5058048;28;20253;-82
2023/12/22 01:52:17;;;;;;;12.90;2.50;;;;;;;5.44;79.38;98830.31;5057673;28;20228;-80
2023/12/22 01:54:43;;;;;;;6.07;2.00;;;;;;;5.34;79.16;98830.53;5057105;28;20230;-82
2023/12/22 01:57:12;;;;;;;7.57;1.67;;;;;;;5.34;78.61;98840.03;5057987;28;20213;-80
2023/12/22 01:59:39;;;;;;;9.80;2.40;;;;;;;5.14;78.57;98833.56;5057277;28;20303;-80
2023/12/22 02:02:05;;;;;;;4.90;1.73;;;;;;;5.10;79.78;98837.13;5057714;28;20693;-80
2023/12/22 02:04:32;;;;;;;6.33;1.70;;;;;;;5.16;80.03;98833.56;5057822;28;20252;-84
2023/12/22 02:07:02;;;;;;;8.97;2.17;;;;;;;5.18;79.15;98832.63;5057440;28;20203;-80
2023/12/22 02:09:28;;;;;;;6.47;2.67;;;;;;;5.03;78.71;98840.72;5057210;28;20749;-81
2023/12/22 02:11:55;;;;;;;6.73;1.97;;;;;;;5.15;77.76;98874.09;5057836;28;20283;-80
2023/12/22 02:14:21;;;;;;;10.37;2.80;;;;;;;5.20;77.31;98875.72;5056321;28;20225;-80
2023/12/22 02:16:53;;;;;;;7.50;2.03;;;;;;;5.16;78.50;98864.59;5056933;28;20251;-82
2023/12/22 02:19:37;;;;;;;6.07;2.23;;;;;;;5.24;77.32;98873.03;5057613;28;20229;-82
2023/12/22 02:22:06;;;;;;;8.73;2.77;;;;;;;5.23;77.23;98880.81;5057709;28;20232;-81
2023/12/22 02:24:34;;;;;;;14.13;2.93;;;;;;;5.27;78.28;98877.25;5056342;28;20279;-81
2023/12/22 02:27:05;;;;;;;11.00;2.53;;;;;;;5.07;78.29;98868.22;5058022;28;20262;-81
2023/12/22 02:29:36;;;;;;;7.27;2.30;;;;;;;5.19;81.14;98828.28;5056959;28;20205;-83
2023/12/22 02:32:07;;;;;;;6.77;1.97;;;;;;;4.97;80.77;98817.59;5058151;28;20278;-81
2023/12/22 02:34:37;;;;;;;5.57;1.50;;;;;;;5.09;81.33;98786.25;5056907;28;20252;-82
2023/12/22 02:37:06;;;;;;;4.93;1.90;;;;;;;5.01;83.60;98749.41;5058158;28;20207;-81
2023/12/22 02:39:34;;;;;;;4.70;1.97;;;;;;;4.86;85.24;98700.66;5056795;28;20221;-81
2023/12/22 02:42:01;;;;;;;6.10;2.07;;;;;;;4.67;86.02;98651.97;5057521;28;20232;-80
2023/12/22 02:44:28;;;;;;;5.73;1.97;;;;;;;4.98;84.23;98657.25;5056560;28;20225;-83
2023/12/22 02:46:54;;;;;;;8.23;1.80;;;;;;;4.80;81.67;98703.38;5057368;28;20206;-83
2023/12/22 02:49:20;;;;;;;3.10;1.10;;;;;;;4.72;80.56;98740.59;5056856;28;20195;-81
2023/12/22 02:51:47;;;;;;;8.07;1.77;;;;;;;4.89;80.69;98734.19;5057572;28;20213;-82
2023/12/22 02:54:13;;;;;;;4.70;1.63;;;;;;;4.69;80.31;98757.91;5056285;28;20218;-80
2023/12/22 02:56:42;;;;;;;4.70;1.60;;;;;;;4.75;81.05;98758.59;5056956;28;20268;-81
2023/12/22 02:59:09;;;;;;;8.30;1.53;;;;;;;4.91;80.43;98761.69;5056838;28;20213;-83
2023/12/22 03:01:35;;;;;;;6.17;2.17;;;;;;;5.05;79.44;98776.03;5056866;28;20286;-82
2023/12/22 03:04:02;;;;;;;4.93;1.60;;;;;;;4.86;79.53;98791.13;5056936;28;20283;-81
2023/12/22 03:06:28;;;;;;;2.53;1.03;;;;;;;4.86;78.84;98824.75;5056361;28;20213;-80
2023/12/22 03:08:54;;;;;;;5.63;2.33;;;;;;;4.88;79.42;98799.72;5056525;28;20249;-80
2023/12/22 03:11:21;;;;;;;9.57;2.00;;;;;;;4.85;78.77;98807.53;5056241;28;20247;-79
2023/12/22 03:13:48;;;;;;;6.53;2.43;;;;;;;4.95;79.84;98806.44;5055699;28;20225;-82
2023/12/22 03:16:15;;;;;;;7.10;1.80;;;;;;;4.89;78.53;98820.34;5056598;28;20205;-83
2023/12/22 03:18:41;;;;;;;8.07;1.37;;;;;;;4.81;79.21;98839.50;5056106;28;20205;-81
2023/12/22 03:21:07;;;;;;;5.53;1.57;;;;;;;4.78;79.34;98807.66;5056513;28;20217;-83
2023/12/22 03:23:34;;;;;;;7.33;1.80;;;;;;;4.89;79.09;98822.06;5056301;28;20230;-82
2023/12/22 03:26:03;;;;;;;4.63;1.90;;;;;;;4.92;79.31;98799.59;5055918;28;20606;-82
2023/12/22 03:28:30;;;;;;;6.23;1.40;;;;;;;4.92;79.12;98814.28;5055928;28;20206;-82
2023/12/22 03:30:57;;;;;;;5.80;1.70;;;;;;;4.87;78.13;98829.84;5055451;28;20686;-83
2023/12/22 03:33:24;;;;;;;6.53;2.23;;;;;;;4.85;77.47;98859.22;5055361;28;20286;-81
2023/12/22 03:35:50;;;;;;;7.47;2.20;;;;;;;4.93;78.93;98852.16;5055962;28;20263;-82
2023/12/22 03:38:17;;;;;;;6.13;2.93;;;;;;;4.83;78.83;98842.91;5056055;28;20260;-80
2023/12/22 03:40:43;;;;;;;9.00;2.20;;;;;;;5.01;79.08;98834.72;5055910;28;20218;-80
2023/12/22 03:43:10;;;;;;;7.87;2.13;;;;;;;5.03;79.59;98834.69;5056677;28;20202;-82
2023/12/22 03:45:36;;;;;;;10.07;2.57;;;;;;;4.74;81.11;98820.69;5055630;28;20278;-81
2023/12/22 03:48:05;;;;;;;8.27;2.00;;;;;;;4.90;81.18;98785.00;5056497;28;20198;-82
2023/12/22 03:50:30;;;;;;;10.73;2.03;;;;;;;4.79;81.38;98780.06;5055292;28;20202;-80
2023/12/22 03:52:57;;;;;;;8.77;1.90;;;;;;;4.82;80.12;98772.25;5056053;28;20232;-81
2023/12/22 03:55:23;;;;;;;6.17;2.47;;;;;;;4.74;79.85;98797.44;5055575;28;20232;-80
2023/12/22 03:57:50;;;;;;;10.30;2.67;;;;;;;4.78;79.68;98799.91;5056655;28;20248;-80
2023/12/22 04:00:17;;;;;;;7.87;2.10;;;;;;;4.80;80.69;98789.53;5056047;28;20251;-83
2023/12/22 04:02:43;;;;;;;8.47;2.00;;;;;;;5.03;80.05;98782.97;5056016;28;20225;-81
2023/12/22 04:05:13;;;;;;;7.37;2.30;;;;;;;4.82;79.52;98797.28;5056233;28;20274;-81
2023/12/22 04:07:39;;;;;;;6.30;2.20;;;;;;;4.99;78.42;98779.63;5056321;28;20198;-83
2023/12/22 04:10:07;;;;;;;8.63;2.30;;;;;;;4.85;79.85;98812.69;5055861;28;20254;-81
2023/12/22 04:12:33;;;;;;;7.43;2.53;;;;;;;4.97;81.45;98769.31;5055447;28;20583;-82
2023/12/22 04:14:59;;;;;;;13.63;2.37;;;;;;;4.88;81.52;98738.50;5056169;28;20782;-81
2023/12/22 04:17:26;;;;;;;7.07;2.37;;;;;;;4.83;81.32;98745.50;5056317;28;20280;-81
2023/12/22 04:19:53;;;;;;;19.20;3.97;;;;;;;4.83;80.91;98718.81;5055942;28;20229;-83
2023/12/22 04:22:20;;;;;;;14.03;2.27;;;;;;;4.88;80.39;98751.44;5056500;28;20232;-83
2023/12/22 04:24:47;;;;;;;9.33;2.33;;;;;;;4.89;80.16;98771.22;5055826;28;20230;-82
2023/12/22 04:27:13;;;;;;;10.70;2.10;;;;;;;4.85;79.74;98779.09;5056642;28;20228;-82
2023/12/22 04:29:39;;;;;;;14.57;2.17;;;;;;;4.82;79.72;98780.00;5056523;28;20210;-82
2023/12/22 04:32:06;;;;;;;11.87;2.20;;;;;;;4.93;79.35;98775.44;5055978;28;20236;-81
2023/12/22 04:34:32;;;;;;;12.17;2.90;;;;;;;5.17;78.82;98774.03;5056342;28;20228;-83
2023/12/22 04:36:59;;;;;;;11.20;2.43;;;;;;;5.15;78.30;98801.66;5057335;28;20228;-82
2023/12/22 04:39:26;;;;;;;5.73;2.00;;;;;;;4.98;77.97;98807.22;5068469;28;20217;-80
2023/12/22 04:41:53;;;;;;;6.50;2.00;;;;;;;5.07;76.56;98832.00;5067990;28;20217;-79
2023/12/22 04:44:19;;;;;;;9.80;2.10;;;;;;;5.25;76.69;98855.75;5068633;28;20225;-80
2023/12/22 04:46:45;;;;;;;9.60;2.10;;;;;;;5.21;75.98;98873.06;5068671;28;20229;-81
2023/12/22 04:49:12;;;;;;;5.17;1.93;;;;;;;5.15;76.51;98870.63;5068091;28;20271;-78
2023/12/22 04:51:38;;;;;;;11.37;1.73;;;;;;;5.06;76.06;98894.13;5068074;28;20228;-78
2023/12/22 04:54:04;;;;;;;15.00;2.40;;;;;;;5.31;76.10;98890.13;5069171;28;20265;-81
2023/12/22 04:56:33;;;;;;;8.80;1.90;;;;;;;5.32;74.94;98915.09;5056356;28;20210;-82
2023/12/22 04:58:59;;;;;;;11.40;2.33;;;;;;;5.23;75.10;98927.38;5055531;28;20204;-82
2023/12/22 05:01:25;;;;;;;11.77;2.10;;;;;;;5.33;74.33;98941.81;5057336;28;20221;-82
2023/12/22 05:03:53;;;;;;;6.57;1.90;;;;;;;5.26;73.92;98951.44;5058696;28;20252;-81
2023/12/22 05:06:20;;;;;;;10.87;2.03;;;;;;;5.35;74.39;98989.19;5059776;28;20665;-81
2023/12/22 05:08:46;;;;;;;8.27;2.10;;;;;;;5.20;75.00;98987.78;5058316;28;20730;-80
2023/12/22 05:11:13;;;;;;;12.37;2.67;;;;;;;5.45;73.37;98980.38;5058976;28;20198;-81
2023/12/22 05:13:42;;;;;;;8.70;2.03;;;;;;;5.29;73.42;98997.97;5058436;28;20731;-81
2023/12/22 05:16:09;;;;;;;6.80;1.57;;;;;;;5.49;73.49;99014.78;5059264;28;20198;-82
2023/12/22 05:18:35;;;;;;;10.13;2.13;;;;;;;5.44;73.09;99030.41;5058997;28;20646;-82
2023/12/22 05:21:02;;;;;;;9.20;1.90;;;;;;;5.29;73.22;99041.94;5059314;28;20283;-82
2023/12/22 05:23:28;;;;;;;5.40;2.63;;;;;;;5.14;75.45;99000.84;5058115;28;20227;-83
2023/12/22 05:25:55;;;;;;;4.63;1.40;;;;;;;5.06;77.73;98964.78;5058808;28;20201;-81
2023/12/22 05:28:21;;;;;;;7.50;1.57;;;;;;;5.07;78.29;98914.75;5059181;28;20626;-81
2023/12/22 05:30:49;;;;;;;5.03;1.83;;;;;;;5.07;78.08;98896.66;5057478;28;20629;-81
2023/12/22 05:33:15;;;;;;;6.40;1.97;;;;;;;5.00;79.44;98864.06;5056732;28;20238;-83
2023/12/22 05:35:42;;;;;;;8.63;1.60;;;;;;;5.15;79.24;98857.69;5058786;28;20251;-81
2023/12/22 05:38:08;;;;;;;8.53;2.43;;;;;;;4.81;81.21;98836.91;5058066;28;20248;-82
2023/12/22 05:40:34;;;;;;;10.73;2.13;;;;;;;5.00;83.73;98746.88;5057808;28;20279;-81
2023/12/22 05:43:01;;;;;;;11.53;2.30;;;;;;;4.98;83.06;98715.88;5057272;28;20202;-80
2023/12/22 05:45:27;;;;;;;6.77;1.70;;;;;;;4.90;83.13;98710.88;5055601;28;20267;-82
2023/12/22 05:47:55;;;;;;;9.70;2.57;;;;;;;4.88;82.31;98701.47;5058268;28;20199;-83
2023/12/22 05:50:21;;;;;;;6.37;1.87;;;;;;;4.87;80.85;98730.78;5058285;28;20256;-81
2023/12/22 05:52:47;;;;;;;6.97;2.00;;;;;;;4.94;78.63;98784.06;5057833;28;20208;-82
2023/12/22 05:55:13;;;;;;;7.13;1.63;;;;;;;5.03;77.41;98816.59;5057565;28;20226;-81
2023/12/22 05:57:39;;;;;;;10.17;2.40;;;;;;;5.25;76.11;98859.22;5058116;28;20261;-82
2023/12/22 06:00:09;;;;;;;5.57;1.53;;;;;;;5.17;75.35;98899.91;5057964;28;20616;-81
2023/12/22 06:02:36;;;;;;;5.87;1.83;;;;;;;5.25;75.35;98951.47;5057669;28;20217;-81
2023/12/22 06:05:04;;;;;;;8.67;1.70;;;;;;;5.14;75.39;98964.63;5057516;28;20279;-81
2023/12/22 06:07:31;;;;;;;4.40;1.63;;;;;;;5.41;74.92;98980.44;5058421;28;20235;-83
2023/12/22 06:09:58;;;;;;;7.30;1.63;;;;;;;5.20;75.00;98992.13;5058828;28;20206;-81
2023/12/22 06:12:24;;;;;;;8.73;1.60;;;;;;;5.33;74.54;99009.94;5056692;28;20205;-81
2023/12/22 06:14:50;;;;;;;6.70;1.73;;;;;;;5.23;75.38;99018.75;5057363;28;20229;-82
2023/12/22 06:17:17;;;;;;;3.50;1.33;;;;;;;5.28;75.02;99016.09;5057680;28;20618;-81
2023/12/22 06:19:43;;;;;;;4.23;1.27;;;;;;;5.31;75.23;99023.78;5057565;28;20211;-82
2023/12/22 06:22:11;;;;;;;4.60;1.20;;;;;;;5.30;76.21;99001.38;5057267;28;20321;-80
2023/12/22 06:24:37;;;;;;;4.77;1.20;;;;;;;5.32;75.56;99017.72;5056848;28;20226;-81
2023/12/22 06:27:06;;;;;;;5.20;1.43;;;;;;;5.08;77.16;99017.34;5058330;28;20203;-80
2023/12/22 06:29:32;;;;;;;3.77;1.00;;;;;;;5.02;80.02;98960.56;5057689;28;20210;-83
2023/12/22 06:31:59;;;;;;;5.20;1.20;;;;;;;4.69;83.05;98885.38;5057360;28;20263;-80
2023/12/22 06:34:26;;;;;;;4.20;1.87;;;;;;;4.60;86.90;98784.81;5056854;28;20226;-81
2023/12/22 06:36:52;;;;;;;4.87;1.10;;;;;;;4.66;89.83;98677.84;5057646;28;20278;-85
2023/12/22 06:39:21;;;;;;;5.43;2.03;;;;;;;4.68;90.69;98671.78;5057214;28;20269;-81
2023/12/22 06:41:47;;;;;;;4.53;1.23;;;;;;;4.61;92.28;98635.78;5057957;28;20375;-81
2023/12/22 06:44:13;;;;;;;4.33;1.27;;;;;;;4.38;93.60;98588.94;5056750;28;20233;-81
2023/12/22 06:46:40;;;;;;;6.53;0.80;;;;;;;3.98;94.21;98532.19;5057056;28;20209;-82
2023/12/22 06:49:06;;;;;;;1.80;1.70;;;;;;;3.82;94.65;98531.69;5056390;28;20206;-81
2023/12/22 06:51:34;;;;;;;1.40;0.40;;;;;;;3.47;95.97;98493.78;5057861;28;20202;-82
2023/12/22 06:54:01;;;;;;;1.27;0.50;;;;;;;3.10;96.82;98485.09;5056720;28;20228;-78
2023/12/22 06:56:30;;;;;;;0.50;0.20;;;;;;;2.72;99.56;98453.19;5055131;28;20206;-82
2023/12/22 06:58:58;;;;;;;1.70;0.30;;;;;;;2.66;100.00;98388.09;5054790;28;20255;-82
2023/12/22 07:01:26;;;;;;;0.47;0.20;;;;;;;2.21;100.00;98285.97;5054236;28;20494;-78
2023/12/22 07:03:53;;;;;;;0.20;0.20;;;;;;;2.80;100.00;98257.25;5055128;28;20517;-81
2023/12/22 07:06:20;;;;;;;0.43;0.20;;;;;;;2.92;100.00;98266.44;5055233;28;20197;-80
2023/12/22 07:09:24;;;;;;;1.57;0.30;;;;;;;2.80;100.00;98324.25;5053684;28;20608;-80
2023/12/22 07:11:53;;;;;;;1.03;0.27;;;;;;;2.54;100.00;98312.75;5054893;28;20197;-81
2023/12/22 07:14:19;;;;;;;1.20;0.30;;;;;;;2.35;100.00;98285.69;5053869;28;20699;-79
2023/12/22 07:16:46;;;;;;;1.30;0.27;;;;;;;2.43;100.00;98264.94;5054520;28;20630;-78
2023/12/22 07:19:13;;;;;;;1.17;0.33;;;;;;;2.36;100.00;98231.59;5054944;28;20255;-79
2023/12/22 07:21:39;;;;;;;4.20;0.70;;;;;;;2.82;100.00;98216.00;5055060;28;20723;-81
2023/12/22 07:24:06;;;;;;;2.20;0.80;;;;;;;2.81;100.00;98210.00;5054022;28;20221;-79
2023/12/22 07:26:33;;;;;;;7.50;0.90;;;;;;;2.68;100.00;98194.00;5053795;28;20209;-80
2023/12/22 07:29:01;;;;;;;5.83;1.87;;;;;;;3.08;100.00;98199.91;5053976;28;20201;-80
2023/12/22 07:31:27;;;;;;;7.37;1.77;;;;;;;3.33;100.00;98200.13;5054094;28;20335;-79
2023/12/22 07:33:53;;;;;;;8.67;2.47;;;;;;;3.70;100.00;98245.59;5054591;28;20229;-80
2023/12/22 07:36:21;;;;;;;9.73;2.33;;;;;;;3.96;100.00;98284.47;5054465;28;20197;-81
2023/12/22 07:38:47;;;;;;;8.77;2.33;;;;;;;4.30;96.52;98330.00;5054041;28;20307;-81
2023/12/22 07:41:14;;;;;;;13.73;2.60;;;;;;;4.41;96.29;98396.03;5054071;28;20226;-80
2023/12/22 07:43:41;;;;;;;16.13;2.57;;;;;;;4.40;94.36;98451.13;5054010;28;20889;-79
2023/12/22 07:46:09;;;;;;;17.77;2.77;;;;;;;4.61;93.82;98458.31;5054070;28;20240;-80
2023/12/22 07:48:36;;;;;;;11.63;2.70;;;;;;;4.73;92.04;98507.09;5053863;28;20216;-78
2023/12/22 07:51:03;;;;;;;11.17;2.70;;;;;;;4.78;89.87;98563.84;5054084;28;20198;-79
2023/12/22 07:53:30;;;;;;;17.03;2.97;;;;;;;5.00;89.53;98604.66;5054985;28;20217;-82
2023/12/22 07:55:56;;;;;;;11.00;2.47;;;;;;;4.86;89.86;98636.88;5053437;28;20252;-79
2023/12/22 07:58:22;;;;;;;11.70;2.00;;;;;;;4.85;88.10;98647.25;5053735;28;20202;-79
2023/12/22 08:00:49;;;;;;;14.30;2.77;;;;;;;5.06;88.09;98701.03;5053252;28;20684;-81
2023/12/22 08:03:16;;;;;;;11.73;2.60;;;;;;;4.95;86.79;98721.94;5053816;28;20206;-79
2023/12/22 08:05:43;;;;;;;10.53;2.60;;;;;;;5.16;87.25;98749.03;5054537;28;20205;-82
2023/12/22 08:08:09;;;;;;;11.07;3.60;;;;;;;5.22;86.18;98768.75;5054451;28;20210;-79
2023/12/22 08:10:36;;;;;;;8.20;1.67;;;;;;;5.00;86.51;98785.66;5053260;28;20228;-78
2023/12/22 08:13:02;;;;;;;7.57;2.07;;;;;;;5.08;84.97;98807.00;5053863;28;20259;-79
2023/12/22 08:15:29;;;;;;;12.60;2.70;;;;;;;5.21;82.02;98856.72;5053539;28;20264;-79
2023/12/22 08:17:55;;;;;;;12.97;3.03;;;;;;;5.25;81.75;98889.38;5053647;28;20251;-80
2023/12/22 08:20:23;;;;;;;8.73;2.73;;;;;;;5.32;80.62;98948.72;5053819;28;20208;-80
2023/12/22 08:22:50;;;;;;;12.83;2.70;;;;;;;5.53;80.60;98968.09;5053467;28;20276;-79
2023/12/22 08:25:19;;;;;;;10.10;2.60;;;;;;;5.62;80.31;98986.91;5050666;28;20226;-82
2023/12/22 08:27:46;;;;;;;5.43;1.80;;;;;;;5.42;79.65;99032.19;5053306;28;20242;-79
2023/12/22 08:30:14;;;;;;;7.83;3.70;;;;;;;5.47;79.77;99013.94;5052941;28;20193;-80
2023/12/22 08:32:40;;;;;;;8.33;2.50;;;;;;;5.57;80.06;99037.03;5052685;28;20205;-80
2023/12/22 08:35:08;;;;;;;9.50;2.23;;;;;;;5.44;79.32;99045.94;5052905;28;20221;-79
2023/12/22 08:37:39;;;;;;;14.90;2.57;;;;;;;5.45;78.55;99051.94;5055896;28;20205;-78
2023/12/22 08:40:07;;;;;;;10.13;2.73;;;;;;;5.62;78.30;99090.44;5053602;28;20209;-81
2023/12/22 08:42:34;;;;;;;13.30;2.77;;;;;;;5.57;77.91;99113.84;5053932;28;20227;-79
2023/12/22 08:45:02;;;;;;;15.87;3.13;;;;;;;5.64;77.85;99130.09;5055129;28;20642;-80
2023/12/22 08:47:28;;;;;;;8.03;2.37;;;;;;;5.57;77.14;99144.91;5056903;28;20218;-79
2023/12/22 08:49:55;;;;;;;7.73;2.00;;;;;;;5.58;77.29;99168.13;5057551;28;20210;-81
2023/12/22 08:52:21;;;;;;;9.90;3.40;;;;;;;5.63;77.02;99162.91;5057459;28;20219;-81
2023/12/22 08:54:49;;;;;;;11.73;2.60;;;;;;;5.85;75.58;99189.22;5056939;28;20227;-80
2023/12/22 08:57:15;;;;;;;16.93;2.67;;;;;;;5.85;76.28;99202.16;5057495;28;20201;-79
2023/12/22 08:59:41;;;;;;;15.93;3.13;;;;;;;5.90;76.58;99210.69;5056714;28;20205;-79
2023/12/22 09:02:08;;;;;;;10.57;2.30;;;;;;;6.12;76.12;99200.75;5057116;28;20271;-81
2023/12/22 09:04:34;;;;;;;9.80;2.40;;;;;;;6.14;76.10;99206.78;5056581;28;20229;-80
2023/12/22 09:07:01;;;;;;;8.93;2.80;;;;;;;6.11;75.98;99226.72;5055365;28;20210;-80
2023/12/22 09:09:27;;;;;;;8.77;2.53;;;;;;;6.07;75.00;99218.16;5056539;28;20203;-79
2023/12/22 09:11:55;;;;;;;7.50;3.33;;;;;;;6.06;74.08;99234.56;5056927;28;20293;-78
2023/12/22 09:14:22;;;;;;;12.80;2.80;;;;;;;6.18;74.82;99254.19;5056306;28;20251;-78
2023/12/22 09:16:48;;;;;;;9.80;2.00;;;;;;;6.09;73.55;99281.16;5057193;28;20267;-78
2023/12/22 09:19:14;;;;;;;8.10;2.77;;;;;;;6.13;74.10;99292.31;5056174;28;20202;-80
2023/12/22 09:21:41;;;;;;;6.43;2.00;;;;;;;6.18;72.76;99311.19;5056928;28;20283;-79
2023/12/22 09:24:08;;;;;;;9.10;2.67;;;;;;;6.30;73.02;99333.44;5047379;28;20280;-79
2023/12/22 09:26:34;;;;;;;12.80;2.43;;;;;;;6.20;72.31;99345.69;5056751;28;20206;-79
2023/12/22 09:29:02;;;;;;;9.30;2.13;;;;;;;6.32;72.61;99353.28;5057068;28;20214;-79
2023/12/22 09:31:28;;;;;;;8.17;2.13;;;;;;;6.34;73.90;99346.31;5057049;28;20212;-78
2023/12/22 09:33:54;;;;;;;7.53;2.20;;;;;;;6.30;73.55;99321.34;5056561;28;20229;-79
2023/12/22 09:36:21;;;;;;;10.93;2.47;;;;;;;6.27;73.10;99324.00;5056999;28;20201;-79
2023/12/22 09:38:47;;;;;;;11.87;2.23;;;;;;;6.28;73.33;99333.47;5055923;28;20239;-78
2023/12/22 09:41:15;;;;;;;9.20;1.83;;;;;;;6.08;74.17;99307.09;5056414;28;20251;-78
2023/12/22 09:43:43;;;;;;;7.10;1.60;;;;;;;6.16;73.55;99319.03;5055846;28;20226;-78
2023/12/22 09:46:11;;;;;;;8.63;2.40;;;;;;;6.04;74.13;99297.66;4347065;28;10000752;-78
2023/12/22 09:48:39;;;;;;;7.33;2.10;;;;;;;6.04;75.42;99276.94;5051348;28;20259;-78
2023/12/22 09:51:06;;;;;;;7.30;1.67;;;;;;;6.11;73.64;99270.75;5052651;28;20642;-77
2023/12/22 09:53:34;;;;;;;3.13;1.43;;;;;;;6.06;74.09;99282.94;5050977;28;20233;-77
2023/12/22 09:56:01;;;;;;;9.33;1.47;;;;;;;6.11;74.76;99266.44;5049701;28;20217;-78
2023/12/22 09:58:27;;;;;;;5.87;2.20;;;;;;;6.05;74.57;99266.56;5052752;28;20320;-78
2023/12/22 10:00:56;;;;;;;4.73;1.33;;;;;;;5.99;75.49;99252.88;5052229;28;20314;-78
2023/12/22 10:03:25;;;;;;;5.27;1.87;;;;;;;6.02;74.79;99253.66;5051876;28;20240;-78
2023/12/22 10:05:52;;;;;;;6.77;1.67;;;;;;;5.99;75.82;99235.59;5052644;28;20297;-78
2023/12/22 10:08:19;;;;;;;6.00;1.60;;;;;;;5.90;77.21;99218.44;5052647;28;20197;-78
2023/12/22 10:10:47;;;;;;;5.27;1.53;;;;;;;6.03;77.28;99200.13;5051521;28;20205;-77
2023/12/22 10:13:14;;;;;;;7.43;1.50;;;;;;;5.90;77.38;99187.38;5052420;28;20288;-77
2023/12/22 10:15:41;;;;;;;4.23;1.60;;;;;;;5.87;78.29;99165.88;5050892;28;20247;-77
2023/12/22 10:18:08;;;;;;;7.17;1.77;;;;;;;5.94;79.59;99121.69;5051380;28;20229;-78
2023/12/22 10:20:37;;;;;;;8.33;1.90;;;;;;;5.95;79.99;99078.56;5051988;28;20208;-78
2023/12/22 10:23:04;;;;;;;9.37;2.30;;;;;;;5.93;80.75;99055.25;5052209;28;20230;-78
2023/12/22 10:25:32;;;;;;;7.63;2.00;;;;;;;5.84;82.75;99002.81;5051198;28;20633;-78
2023/12/22 10:27:59;;;;;;;9.20;3.07;;;;;;;5.92;82.51;98959.44;5053829;28;20214;-78
2023/12/22 10:30:25;;;;;;;9.20;1.80;;;;;;;5.94;83.36;98931.78;5052655;28;20202;-78
2023/12/22 10:32:52;;;;;;;8.60;3.30;;;;;;;5.87;83.31;98925.91;5052318;28;20220;-78
2023/12/22 10:35:20;;;;;;;9.60;1.90;;;;;;;5.96;82.93;98906.72;5052324;28;20226;-78
2023/12/22 10:37:51;;;;;;;10.57;1.77;;;;;;;5.96;83.71;98884.25;5052534;28;20861;-78
2023/12/22 10:40:18;;;;;;;7.10;2.07;;;;;;;5.86;83.56;98890.53;5051851;28;20236;-78
2023/12/22 10:42:44;;;;;;;6.77;2.23;;;;;;;5.90;83.62;98871.44;5052100;28;20904;-78
2023/12/22 10:45:11;;;;;;;6.80;2.57;;;;;;;5.87;84.29;98837.03;5051578;28;20230;-78
2023/12/22 10:47:39;;;;;;;12.43;3.20;;;;;;;6.00;84.54;98842.75;5053928;28;20634;-77
2023/12/22 10:50:06;;;;;;;7.10;2.77;;;;;;;5.95;83.59;98843.72;5051372;28;20214;-78
2023/12/22 10:52:32;;;;;;;7.87;2.67;;;;;;;6.08;82.98;98849.41;5052825;28;20265;-79
2023/12/22 10:55:02;;;;;;;10.00;2.00;;;;;;;6.12;82.30;98857.97;5052812;28;20645;-78
2023/12/22 10:57:28;;;;;;;10.00;2.57;;;;;;;6.12;81.66;98842.41;5052095;28;20214;-78
2023/12/22 10:59:57;;;;;;;8.30;3.00;;;;;;;6.16;81.60;98860.44;5052086;28;20625;-78
2023/12/22 11:02:27;;;;;;;10.30;2.43;;;;;;;6.46;82.09;98852.75;5053373;28;20333;-79
2023/12/22 11:04:58;;;;;;;4.70;1.67;;;;;;;6.29;81.83;98875.66;5052181;28;20226;-78
2023/12/22 11:07:25;;;;;;;12.73;2.17;;;;;;;6.52;81.06;98878.47;5052331;28;20205;-79
2023/12/22 11:09:54;;;;;;;9.63;3.37;;;;;;;6.35;80.16;98920.41;5050864;28;20210;-78
2023/12/22 11:12:24;;;;;;;7.60;2.07;;;;;;;6.49;79.98;98921.78;5051206;28;20713;-79
2023/12/22 11:14:52;;;;;;;6.27;1.77;;;;;;;6.58;81.43;98926.72;5050780;28;20295;-78
2023/12/22 11:17:21;;;;;;;6.07;1.83;;;;;;;6.66;79.65;98948.09;5052216;28;20207;-79
2023/12/22 11:19:50;;;;;;;6.63;2.70;;;;;;;6.52;79.97;98961.44;5052432;28;20210;-78
2023/12/22 11:22:17;;;;;;;4.63;1.67;;;;;;;6.73;78.83;98969.53;5044595;28;20764;-78
2023/12/22 11:24:46;;;;;;;9.23;2.20;;;;;;;6.69;79.17;98973.94;5051242;28;20314;-79
2023/12/22 11:27:13;;;;;;;7.60;1.80;;;;;;;6.66;79.06;98991.31;5051940;28;20652;-79
2023/12/22 11:29:42;;;;;;;5.20;2.23;;;;;;;6.57;78.76;99006.22;5052025;28;20262;-79
2023/12/22 11:32:09;;;;;;;5.57;1.50;;;;;;;6.90;78.15;99007.97;5052425;28;20219;-79
2023/12/22 11:34:37;;;;;;;5.53;1.30;;;;;;;7.00;77.70;99019.81;5051655;28;20229;-80
2023/12/22 11:37:04;;;;;;;5.97;2.00;;;;;;;6.77;76.71;99035.97;5052482;28;20742;-79
2023/12/22 11:39:31;;;;;;;5.13;1.60;;;;;;;6.91;76.78;99048.56;5054139;28;20277;-79